createdAt,value
2022-09-28T00:00:29.662Z,50.86
2022-09-28T00:01:29.697Z,46.38
2022-09-28T00:02:29.722Z,50.02
2022-09-28T00:03:29.662Z,52.37
2022-09-28T00:04:29.628Z,43.24
2022-09-28T00:05:29.618Z,41.46
2022-09-28T00:06:29.626Z,44.50
2022-09-28T00:07:29.608Z,44.55
2022-09-28T00:08:29.622Z,43.63
2022-09-28T00:09:29.590Z,46.59
2022-09-28T00:10:29.583Z,43.95
2022-09-28T00:11:29.585Z,43.96
2022-09-28T00:12:29.567Z,47.65
2022-09-28T00:13:29.585Z,44.81
2022-09-28T00:14:29.557Z,46.01
2022-09-28T00:15:29.546Z,47.49
2022-09-28T00:16:29.590Z,48.24
2022-09-28T00:17:29.541Z,54.76
2022-09-28T00:18:29.550Z,57.06
2022-09-28T00:19:29.515Z,57.02
2022-09-28T00:20:29.510Z,58.16
2022-09-28T00:21:29.503Z,58.18
2022-09-28T00:22:29.500Z,56.97
2022-09-28T00:23:29.512Z,57.60
2022-09-28T00:24:29.485Z,60.78
2022-09-28T00:25:29.468Z,56.65
2022-09-28T00:26:29.461Z,57.62
2022-09-28T00:27:29.452Z,56.18
2022-09-28T00:28:29.480Z,56.07
2022-09-28T00:29:29.440Z,56.01
2022-09-28T00:30:29.433Z,56.26
2022-09-28T00:31:29.521Z,56.04
2022-09-28T00:32:29.432Z,56.28
2022-09-28T00:33:29.439Z,55.94
2022-09-28T00:34:29.403Z,58.17
2022-09-28T00:35:29.394Z,59.33
2022-09-28T00:36:29.411Z,55.72
2022-09-28T00:37:29.378Z,55.94
2022-09-28T00:38:29.404Z,57.02
2022-09-28T00:39:29.367Z,55.66
2022-09-28T00:40:29.410Z,56.25
2022-09-28T00:41:29.347Z,55.53
2022-09-28T00:42:29.339Z,49.84
2022-09-28T00:43:29.337Z,42.36
2022-09-28T00:44:29.352Z,39.28
2022-09-28T00:45:29.373Z,48.55
2022-09-28T00:46:29.311Z,41.39
2022-09-28T00:47:29.303Z,40.83
2022-09-28T00:48:29.292Z,44.57
2022-09-28T00:49:29.316Z,42.73
2022-09-28T00:50:29.279Z,42.44
2022-09-28T00:51:29.271Z,41.60
2022-09-28T00:52:29.264Z,44.82
2022-09-28T00:53:29.263Z,47.23
2022-09-28T00:54:29.274Z,43.49
2022-09-28T00:55:29.261Z,44.82
2022-09-28T00:56:29.276Z,43.37
2022-09-28T00:57:29.229Z,47.44
2022-09-28T00:58:29.342Z,40.60
2022-09-28T00:59:29.251Z,45.74
2022-09-28T01:00:29.229Z,45.15
2022-09-28T01:01:29.203Z,47.92
2022-09-28T01:02:29.254Z,48.88
2022-09-28T01:03:29.176Z,46.66
2022-09-28T01:04:30.046Z,49.39
2022-09-28T01:05:30.164Z,40.39
2022-09-28T01:06:29.155Z,46.58
2022-09-28T01:07:29.154Z,48.73
2022-09-28T01:08:29.138Z,48.10
2022-09-28T01:09:29.165Z,42.95
2022-09-28T01:10:29.119Z,43.50
2022-09-28T01:11:29.116Z,61.31
2022-09-28T01:12:29.102Z,47.45
2022-09-28T01:13:29.106Z,48.75
2022-09-28T01:14:29.117Z,41.17
2022-09-28T01:15:29.085Z,61.39
2022-09-28T01:16:29.122Z,45.96
2022-09-28T01:17:29.070Z,42.48
2022-09-28T01:18:29.056Z,54.52
2022-09-28T01:19:29.078Z,45.01
2022-09-28T01:20:29.050Z,42.97
2022-09-28T01:21:29.043Z,50.06
2022-09-28T01:22:29.028Z,52.74
2022-09-28T01:23:29.023Z,49.45
2022-09-28T01:24:29.038Z,40.72
2022-09-28T01:25:29.009Z,44.59
2022-09-28T01:26:29.008Z,40.80
2022-09-28T01:27:28.993Z,43.43
2022-09-28T01:28:28.997Z,44.08
2022-09-28T01:29:29.006Z,43.38
2022-09-28T01:30:28.966Z,41.57
2022-09-28T01:31:29.050Z,46.80
2022-09-28T01:32:28.956Z,44.81
2022-09-28T01:33:28.951Z,42.95
2022-09-28T01:34:28.961Z,50.77
2022-09-28T01:35:28.939Z,51.34
2022-09-28T01:36:28.928Z,50.77
2022-09-28T01:37:28.916Z,45.98
2022-09-28T01:38:28.911Z,40.88
2022-09-28T01:39:28.929Z,47.19
2022-09-28T01:40:28.928Z,49.44
2022-09-28T01:41:28.891Z,47.41
2022-09-28T01:42:28.880Z,46.07
2022-09-28T01:43:28.872Z,46.36
2022-09-28T01:44:28.904Z,43.83
2022-09-28T01:45:28.941Z,45.65
2022-09-28T01:46:28.854Z,46.13
2022-09-28T01:47:28.843Z,43.63
2022-09-28T01:48:28.840Z,51.90
2022-09-28T01:49:28.847Z,52.47
2022-09-28T01:50:28.823Z,48.34
2022-09-28T01:51:28.812Z,45.87
2022-09-28T01:52:28.817Z,49.26
2022-09-28T01:53:28.811Z,47.48
2022-09-28T01:54:28.816Z,49.69
2022-09-28T01:55:28.779Z,49.40
2022-09-28T01:56:28.773Z,51.39
2022-09-28T01:57:28.764Z,60.39
2022-09-28T01:58:28.768Z,51.97
2022-09-28T01:59:28.774Z,48.59
2022-09-28T02:00:28.795Z,49.32
2022-09-28T02:01:28.738Z,59.53
2022-09-28T02:02:28.863Z,52.13
2022-09-28T02:03:28.717Z,51.95
2022-09-28T02:04:28.758Z,51.04
2022-09-28T02:05:28.703Z,51.96
2022-09-28T02:06:28.698Z,53.72
2022-09-28T02:07:28.687Z,55.64
2022-09-28T02:08:28.683Z,50.14
2022-09-28T02:09:33.563Z,50.85
2022-09-28T02:10:30.665Z,54.42
2022-09-28T02:11:28.658Z,54.00
2022-09-28T02:12:28.649Z,55.36
2022-09-28T02:13:28.646Z,55.08
2022-09-28T02:14:28.660Z,55.07
2022-09-28T02:15:28.627Z,53.58
2022-09-28T02:16:28.715Z,55.72
2022-09-28T02:17:28.614Z,54.63
2022-09-28T02:18:28.608Z,52.07
2022-09-28T02:19:28.624Z,51.90
2022-09-28T02:20:28.593Z,49.71
2022-09-28T02:21:28.582Z,50.28
2022-09-28T02:22:28.579Z,53.00
2022-09-28T02:23:28.571Z,52.42
2022-09-28T02:24:28.587Z,60.28
2022-09-28T02:25:28.553Z,54.23
2022-09-28T02:26:28.549Z,52.54
2022-09-28T02:27:28.538Z,54.92
2022-09-28T02:28:28.536Z,55.12
2022-09-28T02:29:28.551Z,55.37
2022-09-28T02:30:28.524Z,54.05
2022-09-28T02:31:28.580Z,54.75
2022-09-28T02:32:28.505Z,53.43
2022-09-28T02:33:28.502Z,54.61
2022-09-28T02:34:28.517Z,55.72
2022-09-28T02:35:28.479Z,51.10
2022-09-28T02:36:28.495Z,52.11
2022-09-28T02:37:28.464Z,55.38
2022-09-28T02:38:28.459Z,50.49
2022-09-28T02:39:28.475Z,52.23
2022-09-28T02:40:28.493Z,51.30
2022-09-28T02:41:28.441Z,44.25
2022-09-28T02:42:28.434Z,52.29
2022-09-28T02:43:28.420Z,48.49
2022-09-28T02:44:28.434Z,43.37
2022-09-28T02:45:28.432Z,50.79
2022-09-28T02:46:28.401Z,47.85
2022-09-28T02:47:28.392Z,48.90
2022-09-28T02:48:43.008Z,45.64
2022-09-28T02:49:30.542Z,47.03
2022-09-28T02:50:28.367Z,46.78
2022-09-28T02:51:28.370Z,61.01
2022-09-28T02:52:28.349Z,49.03
2022-09-28T02:53:28.339Z,51.40
2022-09-28T02:54:28.362Z,43.80
2022-09-28T02:55:28.331Z,44.74
2022-09-28T02:56:28.322Z,54.05
2022-09-28T02:57:28.313Z,51.45
2022-09-28T02:58:28.301Z,48.66
2022-09-28T02:59:28.326Z,47.75
2022-09-28T03:00:28.292Z,52.20
2022-09-28T03:01:28.284Z,43.82
2022-09-28T03:02:28.330Z,49.41
2022-09-28T03:03:28.264Z,49.18
2022-09-28T03:04:28.281Z,51.14
2022-09-28T03:05:28.249Z,53.43
2022-09-28T03:06:28.238Z,47.70
2022-09-28T03:07:28.233Z,51.77
2022-09-28T03:08:28.228Z,52.60
2022-09-28T03:09:28.253Z,57.73
2022-09-28T03:10:28.212Z,49.82
2022-09-28T03:11:28.204Z,53.48
2022-09-28T03:12:28.194Z,49.57
2022-09-28T03:13:28.189Z,55.32
2022-09-28T03:14:28.215Z,50.71
2022-09-28T03:15:28.168Z,50.60
2022-09-28T03:16:28.196Z,50.01
2022-09-28T03:17:28.163Z,50.33
2022-09-28T03:18:28.161Z,48.75
2022-09-28T03:19:28.150Z,53.66
2022-09-28T03:20:28.163Z,60.00
2022-09-28T03:21:28.126Z,55.00
2022-09-28T03:22:28.122Z,54.63
2022-09-28T03:23:28.126Z,51.63
2022-09-28T03:24:28.107Z,48.37
2022-09-28T03:25:28.143Z,54.54
2022-09-28T03:26:28.095Z,52.69
2022-09-28T03:27:28.085Z,54.02
2022-09-28T03:28:28.081Z,57.55
2022-09-28T03:29:29.666Z,60.79
2022-09-28T03:30:29.195Z,55.33
2022-09-28T03:31:28.180Z,52.36
2022-09-28T03:32:31.604Z,51.82
2022-09-28T03:33:29.731Z,56.18
2022-09-28T03:34:30.603Z,61.16
2022-09-28T03:35:29.798Z,56.83
2022-09-28T03:36:29.753Z,51.79
2022-09-28T03:37:29.758Z,55.62
2022-09-28T03:38:29.607Z,52.03
2022-09-28T03:39:31.603Z,54.33
2022-09-28T03:40:29.550Z,63.99
2022-09-28T03:41:29.343Z,53.36
2022-09-28T03:42:28.071Z,61.58
2022-09-28T03:43:29.665Z,54.78
2022-09-28T03:44:28.606Z,53.09
2022-09-28T03:45:28.190Z,54.47
2022-09-28T03:46:29.825Z,56.87
2022-09-28T03:47:28.041Z,57.46
2022-09-28T03:48:32.444Z,56.77
2022-09-28T03:49:31.106Z,55.40
2022-09-28T03:50:28.089Z,54.67
2022-09-28T03:51:28.741Z,57.52
2022-09-28T03:53:00.716Z,54.36
2022-09-28T03:53:27.893Z,57.10
2022-09-28T03:54:27.909Z,60.03
2022-09-28T03:55:27.880Z,54.98
2022-09-28T03:56:27.866Z,52.87
2022-09-28T03:57:27.865Z,54.69
2022-09-28T03:58:27.854Z,52.95
2022-09-28T03:59:27.872Z,52.40
2022-09-28T04:00:27.839Z,54.40
2022-09-28T04:01:27.865Z,50.33
2022-09-28T04:02:27.873Z,55.94
2022-09-28T04:03:27.819Z,56.10
2022-09-28T04:04:27.835Z,63.24
2022-09-28T04:05:27.802Z,54.03
2022-09-28T04:06:27.793Z,56.95
2022-09-28T04:07:30.930Z,54.92
2022-09-28T04:08:28.787Z,56.57
2022-09-28T04:09:27.807Z,49.87
2022-09-28T04:10:27.769Z,54.79
2022-09-28T04:11:34.934Z,57.53
2022-09-28T04:12:28.745Z,56.98
2022-09-28T04:13:27.734Z,56.19
2022-09-28T04:14:27.732Z,57.84
2022-09-28T04:15:27.724Z,57.45
2022-09-28T04:16:27.824Z,57.63
2022-09-28T04:17:27.709Z,56.71
2022-09-28T04:18:27.701Z,54.37
2022-09-28T04:19:27.703Z,57.80
2022-09-28T04:20:27.685Z,55.62
2022-09-28T04:21:27.702Z,54.19
2022-09-28T04:22:27.669Z,57.08
2022-09-28T04:23:27.661Z,55.67
2022-09-28T04:24:27.651Z,56.66
2022-09-28T04:25:27.645Z,56.10
2022-09-28T04:26:27.663Z,57.72
2022-09-28T04:27:27.624Z,58.70
2022-09-28T04:28:27.620Z,57.20
2022-09-28T04:29:27.618Z,56.48
2022-09-28T04:30:27.600Z,59.06
2022-09-28T04:31:27.677Z,55.19
2022-09-28T04:32:27.590Z,56.35
2022-09-28T04:33:27.585Z,54.97
2022-09-28T04:34:31.902Z,56.62
2022-09-28T04:35:28.568Z,59.42
2022-09-28T04:36:27.627Z,62.03
2022-09-28T04:37:27.563Z,57.53
2022-09-28T04:38:51.314Z,56.76
2022-09-28T04:39:29.541Z,62.64
2022-09-28T04:40:27.553Z,58.48
2022-09-28T04:41:27.554Z,56.94
2022-09-28T04:42:27.524Z,57.69
2022-09-28T04:43:27.513Z,57.72
2022-09-28T04:44:27.502Z,56.25
2022-09-28T04:45:27.554Z,59.67
2022-09-28T04:46:27.516Z,58.45
2022-09-28T04:47:27.478Z,58.90
2022-09-28T04:48:27.472Z,58.09
2022-09-28T04:49:27.463Z,58.90
2022-09-28T04:50:27.460Z,58.71
2022-09-28T04:51:27.469Z,57.83
2022-09-28T04:52:27.438Z,61.40
2022-09-28T04:53:27.434Z,58.53
2022-09-28T04:54:27.423Z,59.06
2022-09-28T04:55:27.429Z,56.99
2022-09-28T04:56:27.436Z,56.28
2022-09-28T04:57:27.406Z,57.77
2022-09-28T04:58:27.401Z,57.55
2022-09-28T04:59:27.387Z,61.59
2022-09-28T05:00:27.385Z,59.01
2022-09-28T05:01:27.489Z,60.28
2022-09-28T05:02:27.417Z,57.78
2022-09-28T05:03:27.356Z,57.20
2022-09-28T05:04:27.353Z,58.81
2022-09-28T05:05:27.343Z,56.54
2022-09-28T05:06:27.362Z,56.61
2022-09-28T05:07:27.334Z,60.22
2022-09-28T05:08:27.324Z,56.98
2022-09-28T05:09:27.311Z,58.12
2022-09-28T05:10:27.304Z,58.57
2022-09-28T05:11:27.318Z,57.12
2022-09-28T05:12:27.287Z,56.41
2022-09-28T05:13:27.281Z,59.69
2022-09-28T05:14:27.270Z,61.01
2022-09-28T05:15:27.264Z,60.73
2022-09-28T05:16:27.316Z,59.70
2022-09-28T05:17:27.248Z,60.35
2022-09-28T05:18:27.242Z,60.56
2022-09-28T05:19:27.228Z,60.62
2022-09-28T05:20:27.226Z,58.50
2022-09-28T05:21:27.243Z,63.64
2022-09-28T05:22:27.211Z,58.36
2022-09-28T05:23:27.204Z,58.64
2022-09-28T05:24:27.194Z,57.86
2022-09-28T05:25:27.187Z,57.13
2022-09-28T05:26:27.205Z,57.34
2022-09-28T05:27:27.170Z,51.24
2022-09-28T05:28:27.167Z,54.37
2022-09-28T05:29:30.152Z,52.96
2022-09-28T05:30:29.152Z,54.36
2022-09-28T05:31:27.216Z,63.00
2022-09-28T05:32:27.155Z,58.79
2022-09-28T05:33:27.127Z,55.35
2022-09-28T05:34:27.145Z,57.12
2022-09-28T05:35:27.139Z,56.79
2022-09-28T05:36:27.139Z,56.95
2022-09-28T05:37:27.106Z,54.32
2022-09-28T05:38:27.097Z,57.56
2022-09-28T05:39:27.084Z,57.46
2022-09-28T05:40:27.107Z,54.22
2022-09-28T05:41:27.094Z,56.62
2022-09-28T05:42:27.067Z,55.42
2022-09-28T05:43:27.065Z,61.69
2022-09-28T05:44:27.051Z,59.19
2022-09-28T05:45:27.090Z,53.54
2022-09-28T05:46:27.114Z,55.46
2022-09-28T05:47:27.075Z,58.63
2022-09-28T05:48:27.023Z,59.40
2022-09-28T05:49:27.008Z,57.68
2022-09-28T05:50:26.999Z,55.80
2022-09-28T05:51:27.039Z,58.46
2022-09-28T05:52:26.979Z,59.98
2022-09-28T05:53:26.968Z,59.04
2022-09-28T05:54:26.971Z,57.98
2022-09-28T05:55:27.029Z,51.81
2022-09-28T05:56:26.979Z,56.62
2022-09-28T05:57:26.945Z,56.56
2022-09-28T05:58:26.941Z,57.07
2022-09-28T05:59:26.931Z,58.73
2022-09-28T06:00:26.923Z,57.73
2022-09-28T06:01:27.094Z,54.88
2022-09-28T06:02:26.975Z,59.51
2022-09-28T06:03:26.898Z,55.28
2022-09-28T06:04:26.893Z,56.61
2022-09-28T06:05:26.899Z,58.71
2022-09-28T06:06:26.917Z,62.23
2022-09-28T06:07:26.870Z,54.25
2022-09-28T06:08:26.862Z,55.45
2022-09-28T06:09:26.845Z,53.79
2022-09-28T06:10:27.848Z,56.83
2022-09-28T06:11:26.875Z,55.13
2022-09-28T06:12:26.836Z,56.37
2022-09-28T06:13:26.822Z,58.28
2022-09-28T06:14:26.819Z,56.56
2022-09-28T06:15:26.814Z,55.93
2022-09-28T06:16:26.843Z,59.64
2022-09-28T06:17:26.818Z,56.56
2022-09-28T06:18:26.791Z,57.55
2022-09-28T06:19:26.779Z,61.71
2022-09-28T06:20:26.773Z,56.67
2022-09-28T06:21:26.783Z,57.36
2022-09-28T06:22:26.782Z,58.50
2022-09-28T06:23:26.750Z,60.67
2022-09-28T06:24:26.741Z,58.80
2022-09-28T06:25:26.741Z,59.07
2022-09-28T06:26:26.757Z,55.62
2022-09-28T06:27:26.805Z,61.30
2022-09-28T06:28:26.711Z,57.63
2022-09-28T06:29:26.714Z,58.27
2022-09-28T06:30:26.760Z,56.15
2022-09-28T06:31:26.731Z,58.42
2022-09-28T06:32:26.686Z,58.35
2022-09-28T06:33:26.674Z,57.91
2022-09-28T06:34:26.665Z,55.27
2022-09-28T06:35:26.666Z,57.50
2022-09-28T06:36:26.672Z,55.59
2022-09-28T06:37:26.652Z,59.23
2022-09-28T06:38:26.640Z,57.38
2022-09-28T06:39:26.634Z,57.50
2022-09-28T06:40:26.679Z,58.39
2022-09-28T06:41:26.650Z,56.92
2022-09-28T06:42:26.613Z,57.98
2022-09-28T06:43:28.911Z,61.17
2022-09-28T06:44:26.602Z,59.05
2022-09-28T06:45:26.590Z,55.72
2022-09-28T06:46:26.656Z,50.64
2022-09-28T06:47:26.573Z,58.00
2022-09-28T06:48:26.573Z,57.82
2022-09-28T06:49:26.557Z,59.17
2022-09-28T06:50:26.555Z,56.89
2022-09-28T06:51:26.565Z,57.80
2022-09-28T06:52:26.533Z,56.36
2022-09-28T06:53:26.531Z,56.48
2022-09-28T06:54:26.522Z,57.86
2022-09-28T06:55:26.505Z,57.96
2022-09-28T06:56:31.958Z,56.05
2022-09-28T06:57:28.492Z,55.58
2022-09-28T06:58:26.487Z,56.66
2022-09-28T06:59:26.485Z,57.71
2022-09-28T07:00:26.522Z,58.76
2022-09-28T07:01:26.541Z,54.68
2022-09-28T07:02:26.503Z,54.91
2022-09-28T07:03:26.441Z,52.09
2022-09-28T07:04:26.453Z,57.33
2022-09-28T07:05:26.433Z,56.97
2022-09-28T07:06:26.448Z,57.56
2022-09-28T07:07:26.415Z,56.22
2022-09-28T07:08:26.417Z,53.83
2022-09-28T07:09:32.621Z,53.60
2022-09-28T07:10:28.404Z,57.18
2022-09-28T07:11:26.409Z,52.35
2022-09-28T07:12:26.378Z,54.34
2022-09-28T07:13:52.850Z,58.41
2022-09-28T07:14:43.954Z,56.34
2022-09-28T07:15:28.352Z,55.96
2022-09-28T07:16:30.709Z,55.85
2022-09-28T07:17:28.403Z,56.85
2022-09-28T07:18:26.363Z,58.07
2022-09-28T07:19:26.325Z,59.20
2022-09-28T07:20:26.386Z,52.75
2022-09-28T07:21:30.241Z,56.58
2022-09-28T07:22:40.438Z,54.72
2022-09-28T07:23:28.310Z,55.41
2022-09-28T07:24:26.290Z,52.59
2022-09-28T07:25:26.278Z,56.72
2022-09-28T07:26:26.304Z,56.23
2022-09-28T07:27:28.933Z,56.60
2022-09-28T07:28:27.261Z,54.96
2022-09-28T07:29:26.246Z,54.21
2022-09-28T07:30:26.364Z,58.21
2022-09-28T07:31:26.260Z,59.50
2022-09-28T07:32:26.286Z,54.79
2022-09-28T07:33:26.234Z,55.57
2022-09-28T07:34:26.206Z,60.00
2022-09-28T07:35:26.202Z,56.39
2022-09-28T07:36:26.214Z,54.57
2022-09-28T07:37:26.197Z,54.78
2022-09-28T07:38:26.178Z,55.85
2022-09-28T07:39:26.166Z,57.59
2022-09-28T07:40:26.272Z,57.35
2022-09-28T07:41:26.187Z,55.58
2022-09-28T07:42:26.148Z,57.97
2022-09-28T07:43:26.142Z,56.21
2022-09-28T07:44:26.140Z,55.77
2022-09-28T07:45:26.131Z,57.79
2022-09-28T07:46:26.202Z,56.26
2022-09-28T07:47:28.603Z,56.23
2022-09-28T07:48:26.102Z,53.93
2022-09-28T07:49:26.095Z,56.95
2022-09-28T07:50:26.088Z,56.35
2022-09-28T07:51:26.088Z,57.31
2022-09-28T07:52:26.098Z,51.40
2022-09-28T07:53:26.062Z,55.26
2022-09-28T07:54:26.061Z,55.35
2022-09-28T07:55:26.046Z,58.26
2022-09-28T07:56:26.035Z,51.96
2022-09-28T07:57:26.059Z,57.35
2022-09-28T07:58:26.049Z,57.35
2022-09-28T07:59:26.018Z,60.02
2022-09-28T08:00:26.013Z,62.43
2022-09-28T08:01:26.040Z,58.17
2022-09-28T08:02:26.062Z,59.72
2022-09-28T08:03:25.986Z,59.85
2022-09-28T08:04:25.972Z,58.55
2022-09-28T08:05:26.975Z,62.41
2022-09-28T08:06:25.966Z,58.16
2022-09-28T08:07:25.985Z,59.90
2022-09-28T08:08:25.957Z,58.32
2022-09-28T08:09:25.946Z,54.29
2022-09-28T08:10:25.935Z,56.25
2022-09-28T08:11:25.934Z,55.07
2022-09-28T08:12:25.950Z,59.85
2022-09-28T08:13:27.028Z,58.09
2022-09-28T08:14:26.909Z,55.69
2022-09-28T08:15:25.917Z,55.76
2022-09-28T08:16:25.945Z,51.55
2022-09-28T08:17:25.947Z,52.21
2022-09-28T08:18:25.877Z,56.57
2022-09-28T08:19:25.891Z,55.99
2022-09-28T08:20:25.865Z,55.85
2022-09-28T08:21:25.857Z,55.51
2022-09-28T08:22:25.875Z,54.73
2022-09-28T08:23:25.849Z,55.89
2022-09-28T08:24:25.832Z,58.54
2022-09-28T08:25:25.828Z,57.35
2022-09-28T08:26:25.828Z,58.38
2022-09-28T08:27:25.835Z,62.46
2022-09-28T08:28:25.810Z,54.16
2022-09-28T08:29:25.800Z,56.72
2022-09-28T08:30:25.845Z,55.70
2022-09-28T08:31:25.779Z,59.15
2022-09-28T08:32:25.797Z,57.41
2022-09-28T08:33:25.779Z,59.24
2022-09-28T08:34:25.764Z,56.47
2022-09-28T08:35:25.778Z,57.14
2022-09-28T08:36:25.749Z,58.15
2022-09-28T08:37:25.767Z,54.95
2022-09-28T08:38:25.729Z,54.42
2022-09-28T08:39:25.721Z,58.97
2022-09-28T08:40:25.802Z,56.94
2022-09-28T08:41:25.718Z,54.35
2022-09-28T08:42:25.727Z,54.18
2022-09-28T08:43:25.691Z,55.54
2022-09-28T08:44:25.694Z,58.21
2022-09-28T08:45:25.694Z,58.02
2022-09-28T08:46:27.131Z,55.08
2022-09-28T08:47:25.665Z,61.00
2022-09-28T08:48:25.650Z,56.57
2022-09-28T08:49:26.268Z,55.24
2022-09-28T08:50:26.640Z,51.83
2022-09-28T08:51:25.657Z,55.89
2022-09-28T08:52:25.625Z,55.81
2022-09-28T08:53:25.612Z,56.61
2022-09-28T08:54:25.609Z,51.82
2022-09-28T08:55:25.596Z,59.38
2022-09-28T08:56:25.622Z,57.72
2022-09-28T08:57:25.594Z,60.27
2022-09-28T08:58:25.601Z,56.95
2022-09-28T08:59:25.569Z,54.34
2022-09-28T09:00:25.563Z,53.59
2022-09-28T09:01:25.619Z,55.55
2022-09-28T09:02:25.677Z,55.79
2022-09-28T09:03:25.536Z,57.60
2022-09-28T09:04:25.530Z,55.76
2022-09-28T09:05:25.791Z,55.60
2022-09-28T09:06:25.515Z,62.22
2022-09-28T09:07:25.537Z,57.33
2022-09-28T09:08:25.501Z,52.35
2022-09-28T09:09:25.494Z,49.68
2022-09-28T09:10:25.489Z,55.47
2022-09-28T09:11:25.482Z,55.17
2022-09-28T09:12:25.500Z,51.11
2022-09-28T09:13:25.468Z,56.45
2022-09-28T09:14:25.459Z,55.23
2022-09-28T09:15:25.452Z,54.71
2022-09-28T09:16:25.472Z,56.84
2022-09-28T09:17:25.485Z,57.73
2022-09-28T09:18:25.432Z,55.74
2022-09-28T09:19:25.418Z,47.84
2022-09-28T09:20:25.439Z,58.56
2022-09-28T09:21:25.404Z,54.58
2022-09-28T09:22:25.425Z,56.41
2022-09-28T09:23:25.390Z,55.28
2022-09-28T09:24:25.381Z,53.52
2022-09-28T09:25:25.373Z,55.89
2022-09-28T09:26:26.231Z,56.26
2022-09-28T09:27:26.396Z,56.01
2022-09-28T09:28:25.377Z,53.66
2022-09-28T09:29:25.338Z,57.23
2022-09-28T09:30:28.086Z,53.06
2022-09-28T09:31:25.356Z,54.73
2022-09-28T09:32:25.347Z,57.25
2022-09-28T09:33:25.314Z,57.83
2022-09-28T09:34:25.304Z,56.93
2022-09-28T09:35:29.480Z,55.48
2022-09-28T09:36:27.286Z,55.43
2022-09-28T09:37:25.301Z,55.58
2022-09-28T09:38:25.273Z,55.62
2022-09-28T09:39:26.306Z,57.17
2022-09-28T09:40:25.288Z,55.60
2022-09-28T09:41:25.263Z,56.87
2022-09-28T09:42:25.280Z,57.00
2022-09-28T09:43:28.035Z,53.25
2022-09-28T09:44:26.241Z,55.34
2022-09-28T09:45:25.225Z,53.79
2022-09-28T09:46:25.244Z,55.59
2022-09-28T09:47:25.243Z,54.41
2022-09-28T09:48:25.200Z,58.88
2022-09-28T09:49:25.188Z,56.43
2022-09-28T09:50:25.189Z,51.45
2022-09-28T09:51:25.185Z,55.12
2022-09-28T09:52:58.829Z,57.98
2022-09-28T09:53:25.163Z,59.54
2022-09-28T09:54:25.150Z,56.84
2022-09-28T09:55:29.734Z,54.25
2022-09-28T09:56:27.139Z,54.46
2022-09-28T09:57:25.127Z,54.09
2022-09-28T09:58:25.149Z,54.97
2022-09-28T09:59:25.109Z,53.16
2022-09-28T10:00:25.107Z,54.18
2022-09-28T10:01:25.115Z,55.21
2022-09-28T10:02:25.128Z,56.32
2022-09-28T10:03:25.113Z,53.62
2022-09-28T10:04:25.077Z,52.62
2022-09-28T10:05:25.062Z,54.17
2022-09-28T10:06:25.053Z,53.88
2022-09-28T10:07:25.054Z,56.99
2022-09-28T10:08:25.069Z,57.23
2022-09-28T10:09:25.030Z,56.78
2022-09-28T10:10:25.027Z,56.80
2022-09-28T10:11:25.018Z,53.46
2022-09-28T10:12:25.008Z,56.00
2022-09-28T10:13:25.029Z,56.56
2022-09-28T10:14:24.994Z,56.61
2022-09-28T10:15:24.981Z,57.37
2022-09-28T10:16:25.037Z,56.64
2022-09-28T10:17:24.984Z,58.74
2022-09-28T10:18:24.998Z,53.70
2022-09-28T10:19:24.955Z,57.37
2022-09-28T10:20:24.947Z,58.07
2022-09-28T10:21:24.941Z,53.58
2022-09-28T10:22:24.962Z,55.44
2022-09-28T10:23:24.952Z,57.54
2022-09-28T10:24:24.932Z,56.47
2022-09-28T10:25:24.951Z,56.35
2022-09-28T10:26:25.451Z,57.44
2022-09-28T10:27:25.903Z,54.39
2022-09-28T10:28:24.931Z,54.63
2022-09-28T10:29:24.894Z,54.00
2022-09-28T10:30:24.875Z,59.63
2022-09-28T10:31:24.879Z,53.29
2022-09-28T10:32:24.860Z,56.05
2022-09-28T10:33:24.883Z,52.76
2022-09-28T10:34:24.843Z,54.43
2022-09-28T10:35:24.839Z,56.51
2022-09-28T10:36:24.833Z,55.99
2022-09-28T10:37:24.828Z,60.19
2022-09-28T10:38:24.865Z,55.36
2022-09-28T10:39:24.807Z,59.06
2022-09-28T10:40:24.857Z,57.96
2022-09-28T10:41:24.788Z,58.14
2022-09-28T10:42:24.780Z,54.97
2022-09-28T10:43:24.804Z,57.84
2022-09-28T10:44:24.762Z,58.33
2022-09-28T10:45:24.759Z,56.30
2022-09-28T10:46:24.791Z,57.37
2022-09-28T10:47:24.746Z,56.31
2022-09-28T10:48:24.766Z,56.32
2022-09-28T10:49:24.725Z,53.05
2022-09-28T10:50:24.717Z,53.53
2022-09-28T10:51:24.717Z,55.69
2022-09-28T10:52:24.796Z,57.02
2022-09-28T10:53:24.986Z,58.65
2022-09-28T10:54:25.696Z,55.55
2022-09-28T10:55:24.690Z,55.12
2022-09-28T10:56:24.675Z,61.10
2022-09-28T10:57:24.665Z,53.72
2022-09-28T10:58:24.688Z,49.90
2022-09-28T10:59:24.655Z,55.64
2022-09-28T11:00:24.661Z,55.35
2022-09-28T11:01:24.694Z,53.31
2022-09-28T11:02:24.658Z,56.19
2022-09-28T11:03:24.642Z,53.72
2022-09-28T11:04:24.614Z,54.69
2022-09-28T11:05:24.620Z,54.77
2022-09-28T11:06:24.612Z,52.92
2022-09-28T11:07:24.590Z,57.09
2022-09-28T11:08:24.610Z,55.47
2022-09-28T11:09:28.414Z,57.21
2022-09-28T11:10:26.574Z,56.44
2022-09-28T11:11:24.564Z,55.30
2022-09-28T11:12:24.562Z,56.16
2022-09-28T11:13:24.570Z,54.56
2022-09-28T11:14:25.542Z,55.67
2022-09-28T11:15:24.529Z,58.73
2022-09-28T11:16:24.574Z,55.37
2022-09-28T11:17:24.515Z,51.76
2022-09-28T11:18:24.544Z,58.86
2022-09-28T11:19:24.506Z,56.33
2022-09-28T11:20:27.343Z,57.74
2022-09-28T11:21:25.489Z,51.98
2022-09-28T11:22:24.479Z,56.44
2022-09-28T11:23:24.499Z,54.70
2022-09-28T11:24:24.737Z,57.63
2022-09-28T11:25:24.473Z,57.66
2022-09-28T11:26:24.447Z,52.72
2022-09-28T11:27:24.440Z,57.67
2022-09-28T11:28:24.479Z,53.05
2022-09-28T11:29:24.440Z,54.56
2022-09-28T11:30:24.487Z,54.53
2022-09-28T11:31:24.423Z,56.05
2022-09-28T11:32:24.407Z,53.56
2022-09-28T11:33:24.428Z,57.12
2022-09-28T11:34:31.356Z,55.26
2022-09-28T11:35:26.382Z,54.84
2022-09-28T11:36:24.464Z,56.75
2022-09-28T11:37:24.370Z,56.18
2022-09-28T11:38:24.391Z,57.03
2022-09-28T11:39:24.350Z,53.74
2022-09-28T11:40:24.408Z,56.29
2022-09-28T11:41:24.346Z,53.60
2022-09-28T11:42:24.338Z,54.68
2022-09-28T11:43:24.327Z,55.20
2022-09-28T11:44:26.164Z,56.28
2022-09-28T11:45:24.305Z,53.56
2022-09-28T11:46:24.356Z,52.81
2022-09-28T11:47:24.297Z,55.54
2022-09-28T11:48:24.298Z,55.99
2022-09-28T11:49:24.302Z,57.70
2022-09-28T11:50:24.814Z,54.77
2022-09-28T11:51:25.261Z,55.60
2022-09-28T11:52:24.253Z,54.98
2022-09-28T11:53:24.259Z,53.10
2022-09-28T11:54:24.274Z,57.18
2022-09-28T11:55:24.266Z,56.76
2022-09-28T11:56:24.227Z,59.04
2022-09-28T11:57:24.211Z,55.99
2022-09-28T11:58:24.212Z,57.10
2022-09-28T11:59:24.263Z,51.08
2022-09-28T12:00:24.192Z,52.01
2022-09-28T12:01:24.182Z,54.55
2022-09-28T12:02:24.289Z,56.26
2022-09-28T12:03:24.280Z,55.91
2022-09-28T12:04:24.194Z,53.79
2022-09-28T12:05:24.205Z,53.96
2022-09-28T12:06:24.144Z,54.55
2022-09-28T12:07:24.143Z,57.17
2022-09-28T12:08:25.168Z,55.67
2022-09-28T12:09:24.129Z,57.17
2022-09-28T12:10:24.110Z,54.97
2022-09-28T12:11:24.122Z,56.30
2022-09-28T12:12:24.108Z,56.32
2022-09-28T12:13:24.855Z,52.84
2022-09-28T12:14:24.088Z,57.78
2022-09-28T12:15:24.076Z,55.37
2022-09-28T12:16:45.703Z,57.73
2022-09-28T12:17:26.186Z,53.11
2022-09-28T12:18:24.051Z,53.81
2022-09-28T12:19:24.041Z,56.14
2022-09-28T12:20:24.051Z,56.61
2022-09-28T12:21:24.038Z,55.23
2022-09-28T12:22:24.047Z,53.51
2022-09-28T12:23:24.009Z,54.00
2022-09-28T12:24:24.004Z,54.40
2022-09-28T12:25:24.055Z,56.36
2022-09-28T12:26:23.986Z,57.05
2022-09-28T12:27:24.003Z,56.97
2022-09-28T12:28:23.965Z,57.49
2022-09-28T12:29:23.958Z,56.17
2022-09-28T12:30:23.950Z,58.22
2022-09-28T12:31:24.019Z,56.71
2022-09-28T12:32:23.960Z,55.84
2022-09-28T12:33:23.931Z,55.01
2022-09-28T12:34:23.928Z,57.38
2022-09-28T12:35:23.915Z,55.30
2022-09-28T12:36:23.910Z,58.56
2022-09-28T12:37:23.923Z,56.78
2022-09-28T12:38:23.891Z,57.12
2022-09-28T12:39:35.526Z,53.71
2022-09-28T12:40:25.924Z,55.66
2022-09-28T12:41:23.863Z,55.78
2022-09-28T12:42:23.899Z,56.80
2022-09-28T12:43:23.949Z,56.87
2022-09-28T12:44:23.842Z,59.75
2022-09-28T12:45:23.845Z,59.90
2022-09-28T12:46:23.880Z,54.10
2022-09-28T12:47:23.849Z,58.32
2022-09-28T12:48:23.831Z,57.40
2022-09-28T12:50:13.757Z,54.63
2022-09-28T12:50:46.463Z,61.61
2022-09-28T12:51:25.788Z,56.81
2022-09-28T12:52:23.782Z,57.79